ムルマンスク の空港の天気 - METARとTAF

ムルマンスク空港 ( ULMM / MMK ) - ロシア ムルマンスク
飛行場実況気象(Metar)
観測時間12/14 09:00 MSK (12/14 06:00 UTC)
風向・風速南南東 3m/s
視程10km以上
天気現象
全天の8割程度の雲 雲底高度 1490m
気温-2℃
湿度69%
気圧1023hPa
METARULMM 140600Z 15003MPS 9999 BKN049 M02/M07 Q1023 R31/310059 NOSIG RMK QFE760
過去の天気等 Google飛行場航空写真 Wunderground天気予報

過去48時間のMETAR

飛行場予報(TAF)
発表時間: 12/14 07:53 MSK (12/14 04:53 UTC)
予報対象時間: 14日9時 MSK ~ 15日9時 MSK
風向・風速南西 3m/s 瞬間風速 8m/s
視程10km以上
全天の8割程度の雲 雲底高度 340m
14日9時 MSK ~ 14日15時 MSK に一時的に
風向・風速西南西 4m/s 瞬間風速 9m/s
視程4000m
天気現象弱いしゅう雪
全天の8割程度の積乱雲 雲底高度 340m
14日15時 MSK ~ 15日9時 MSK に一時的に
風向・風速西南西 3m/s 瞬間風速 8m/s
視程3100m
天気現象弱いしゅう雪 もや
全天の8割程度の雲 雲底高度 90m
全天の8割程度の積乱雲 雲底高度 340m
TAF ULMM 140453Z 1406/1506 23003G08MPS 9999 BKN011
TEMPO 1406/1412 25004G09MPS 4000 -SHSN BKN011CB
TEMPO 1412/1506 25003G08MPS 3100 -SHSN BR BKN003 BKN011CB